sensor_id;sensor_type;location;lat;lon;timestamp;pressure;altitude;pressure_sealevel;temperature;humidity
59608;BME280;45426;44.726;10.390;2023-02-23T00:01:13;100536.56;;;10.62;100.00
59608;BME280;45426;44.726;10.390;2023-02-23T00:03:38;100533.63;;;10.67;100.00
59608;BME280;45426;44.726;10.390;2023-02-23T00:06:06;100536.06;;;10.60;100.00
59608;BME280;45426;44.726;10.390;2023-02-23T00:08:32;100536.97;;;10.73;100.00
59608;BME280;45426;44.726;10.390;2023-02-23T00:11:03;100526.78;;;10.70;100.00
59608;BME280;45426;44.726;10.390;2023-02-23T00:13:31;100532.38;;;10.65;100.00
59608;BME280;45426;44.726;10.390;2023-02-23T00:15:56;100531.66;;;10.77;100.00
59608;BME280;45426;44.726;10.390;2023-02-23T00:18:22;100534.66;;;10.84;100.00
59608;BME280;45426;44.726;10.390;2023-02-23T00:20:55;100525.31;;;10.73;100.00
59608;BME280;45426;44.726;10.390;2023-02-23T00:23:22;100533.00;;;10.71;100.00
59608;BME280;45426;44.726;10.390;2023-02-23T00:25:48;100534.94;;;10.91;100.00
59608;BME280;45426;44.726;10.390;2023-02-23T00:28:13;100539.16;;;10.80;100.00
59608;BME280;45426;44.726;10.390;2023-02-23T00:30:39;100538.69;;;10.99;100.00
59608;BME280;45426;44.726;10.390;2023-02-23T00:33:04;100537.69;;;11.03;100.00
59608;BME280;45426;44.726;10.390;2023-02-23T00:35:32;100535.47;;;11.05;100.00
59608;BME280;45426;44.726;10.390;2023-02-23T00:37:58;100529.28;;;10.96;100.00
59608;BME280;45426;44.726;10.390;2023-02-23T00:40:23;100535.16;;;10.77;100.00
59608;BME280;45426;44.726;10.390;2023-02-23T00:42:49;100536.31;;;10.97;100.00
59608;BME280;45426;44.726;10.390;2023-02-23T00:45:16;100534.19;;;10.82;100.00
59608;BME280;45426;44.726;10.390;2023-02-23T00:47:43;100538.16;;;10.63;100.00
59608;BME280;45426;44.726;10.390;2023-02-23T00:50:10;100535.09;;;10.65;100.00
59608;BME280;45426;44.726;10.390;2023-02-23T00:52:38;100531.13;;;10.62;100.00
59608;BME280;45426;44.726;10.390;2023-02-23T00:55:12;100534.50;;;10.59;100.00
59608;BME280;45426;44.726;10.390;2023-02-23T00:57:38;100529.81;;;10.68;100.00
59608;BME280;45426;44.726;10.390;2023-02-23T01:00:06;100517.03;;;10.39;100.00
59608;BME280;45426;44.726;10.390;2023-02-23T01:02:47;100516.06;;;10.44;100.00
59608;BME280;45426;44.726;10.390;2023-02-23T01:05:13;100520.47;;;10.57;100.00
59608;BME280;45426;44.726;10.390;2023-02-23T01:07:39;100521.25;;;10.79;100.00
59608;BME280;45426;44.726;10.390;2023-02-23T01:10:05;100525.63;;;10.92;100.00
59608;BME280;45426;44.726;10.390;2023-02-23T01:12:45;100525.31;;;10.94;100.00
59608;BME280;45426;44.726;10.390;2023-02-23T01:15:11;100517.69;;;10.87;100.00
59608;BME280;45426;44.726;10.390;2023-02-23T01:17:37;100509.00;;;10.94;100.00
59608;BME280;45426;44.726;10.390;2023-02-23T01:20:02;100511.53;;;10.78;100.00
59608;BME280;45426;44.726;10.390;2023-02-23T01:22:39;100513.50;;;10.68;100.00
59608;BME280;45426;44.726;10.390;2023-02-23T01:25:06;100515.75;;;10.66;100.00
59608;BME280;45426;44.726;10.390;2023-02-23T01:27:32;100516.69;;;10.49;100.00
59608;BME280;45426;44.726;10.390;2023-02-23T01:29:59;100503.00;;;10.28;100.00
59608;BME280;45426;44.726;10.390;2023-02-23T01:32:25;100514.31;;;10.39;100.00
59608;BME280;45426;44.726;10.390;2023-02-23T01:34:50;100510.81;;;10.39;100.00
59608;BME280;45426;44.726;10.390;2023-02-23T01:37:16;100509.25;;;10.59;100.00
59608;BME280;45426;44.726;10.390;2023-02-23T01:39:41;100504.56;;;10.68;100.00
59608;BME280;45426;44.726;10.390;2023-02-23T01:42:13;100509.91;;;10.56;100.00
59608;BME280;45426;44.726;10.390;2023-02-23T01:47:05;100504.34;;;10.52;100.00
59608;BME280;45426;44.726;10.390;2023-02-23T01:49:32;100495.84;;;10.33;100.00
59608;BME280;45426;44.726;10.390;2023-02-23T01:52:08;100497.41;;;10.63;100.00
59608;BME280;45426;44.726;10.390;2023-02-23T01:54:38;100497.78;;;10.53;100.00
59608;BME280;45426;44.726;10.390;2023-02-23T01:57:05;100498.78;;;10.69;100.00
59608;BME280;45426;44.726;10.390;2023-02-23T01:59:40;100489.66;;;10.53;100.00
59608;BME280;45426;44.726;10.390;2023-02-23T02:02:07;100493.47;;;10.52;100.00
59608;BME280;45426;44.726;10.390;2023-02-23T02:04:37;100487.38;;;10.25;100.00
59608;BME280;45426;44.726;10.390;2023-02-23T02:07:14;100491.09;;;10.51;100.00
59608;BME280;45426;44.726;10.390;2023-02-23T02:09:42;100485.31;;;10.52;100.00
59608;BME280;45426;44.726;10.390;2023-02-23T02:12:28;100481.28;;;10.58;100.00
59608;BME280;45426;44.726;10.390;2023-02-23T02:14:54;100482.94;;;10.72;100.00
59608;BME280;45426;44.726;10.390;2023-02-23T02:17:29;100477.25;;;10.64;100.00
59608;BME280;45426;44.726;10.390;2023-02-23T02:34:28;100479.09;;;10.73;100.00
59608;BME280;45426;44.726;10.390;2023-02-23T02:40:03;100474.69;;;10.68;100.00
59608;BME280;45426;44.726;10.390;2023-02-23T02:43:00;100475.84;;;10.58;100.00
59608;BME280;45426;44.726;10.390;2023-02-23T02:45:43;100478.09;;;10.56;100.00
59608;BME280;45426;44.726;10.390;2023-02-23T02:53:46;100473.34;;;10.74;100.00
59608;BME280;45426;44.726;10.390;2023-02-23T02:56:17;100466.19;;;10.69;100.00
59608;BME280;45426;44.726;10.390;2023-02-23T02:58:45;100475.84;;;10.58;100.00
59608;BME280;45426;44.726;10.390;2023-02-23T03:01:15;100473.06;;;10.46;100.00
59608;BME280;45426;44.726;10.390;2023-02-23T03:04:03;100477.81;;;10.49;100.00
59608;BME280;45426;44.726;10.390;2023-02-23T03:06:56;100478.19;;;10.47;100.00
59608;BME280;45426;44.726;10.390;2023-02-23T03:19:06;100480.03;;;10.77;100.00
59608;BME280;45426;44.726;10.390;2023-02-23T03:24:59;100482.09;;;10.59;100.00
59608;BME280;45426;44.726;10.390;2023-02-23T03:28:11;100489.59;;;10.83;100.00
59608;BME280;45426;44.726;10.390;2023-02-23T03:31:20;100490.56;;;10.57;100.00
59608;BME280;45426;44.726;10.390;2023-02-23T03:34:13;100486.78;;;10.49;100.00
59608;BME280;45426;44.726;10.390;2023-02-23T03:40:16;100485.13;;;10.36;100.00
59608;BME280;45426;44.726;10.390;2023-02-23T03:43:06;100487.25;;;10.52;100.00
59608;BME280;45426;44.726;10.390;2023-02-23T03:45:54;100494.13;;;10.49;100.00
59608;BME280;45426;44.726;10.390;2023-02-23T03:48:42;100488.19;;;10.56;100.00
59608;BME280;45426;44.726;10.390;2023-02-23T03:51:30;100485.19;;;10.48;100.00
59608;BME280;45426;44.726;10.390;2023-02-23T03:54:37;100492.56;;;10.48;100.00
59608;BME280;45426;44.726;10.390;2023-02-23T03:57:23;100495.31;;;10.60;100.00
59608;BME280;45426;44.726;10.390;2023-02-23T04:00:10;100492.16;;;10.58;100.00
59608;BME280;45426;44.726;10.390;2023-02-23T04:02:55;100496.94;;;10.61;100.00
59608;BME280;45426;44.726;10.390;2023-02-23T04:05:42;100498.91;;;10.52;100.00
59608;BME280;45426;44.726;10.390;2023-02-23T04:08:33;100496.41;;;10.68;100.00
59608;BME280;45426;44.726;10.390;2023-02-23T04:11:38;100493.56;;;10.64;100.00
59608;BME280;45426;44.726;10.390;2023-02-23T04:14:28;100500.13;;;10.63;100.00
59608;BME280;45426;44.726;10.390;2023-02-23T04:16:56;100496.00;;;10.27;100.00
59608;BME280;45426;44.726;10.390;2023-02-23T04:19:25;100501.63;;;10.14;100.00
59608;BME280;45426;44.726;10.390;2023-02-23T04:21:52;100498.28;;;10.17;100.00
59608;BME280;45426;44.726;10.390;2023-02-23T04:24:17;100494.38;;;10.35;100.00
59608;BME280;45426;44.726;10.390;2023-02-23T04:26:43;100496.09;;;10.40;100.00
59608;BME280;45426;44.726;10.390;2023-02-23T04:29:10;100497.06;;;10.44;100.00
59608;BME280;45426;44.726;10.390;2023-02-23T04:31:35;100489.09;;;10.30;100.00
59608;BME280;45426;44.726;10.390;2023-02-23T04:34:01;100490.66;;;10.40;100.00
59608;BME280;45426;44.726;10.390;2023-02-23T04:36:27;100490.09;;;10.55;100.00
59608;BME280;45426;44.726;10.390;2023-02-23T04:38:52;100493.38;;;10.40;100.00
59608;BME280;45426;44.726;10.390;2023-02-23T04:41:18;100491.19;;;10.33;100.00
59608;BME280;45426;44.726;10.390;2023-02-23T04:43:44;100493.13;;;10.24;100.00
59608;BME280;45426;44.726;10.390;2023-02-23T04:46:09;100490.59;;;10.19;100.00
59608;BME280;45426;44.726;10.390;2023-02-23T04:48:34;100493.28;;;10.27;100.00
59608;BME280;45426;44.726;10.390;2023-02-23T04:51:00;100494.63;;;10.51;100.00
59608;BME280;45426;44.726;10.390;2023-02-23T04:53:25;100485.38;;;10.43;100.00
59608;BME280;45426;44.726;10.390;2023-02-23T04:55:51;100490.81;;;10.43;100.00
59608;BME280;45426;44.726;10.390;2023-02-23T04:58:16;100487.63;;;10.41;100.00
59608;BME280;45426;44.726;10.390;2023-02-23T05:00:42;100487.44;;;10.46;100.00
59608;BME280;45426;44.726;10.390;2023-02-23T05:03:08;100486.25;;;10.26;100.00
59608;BME280;45426;44.726;10.390;2023-02-23T05:05:33;100497.56;;;10.37;100.00
59608;BME280;45426;44.726;10.390;2023-02-23T05:07:59;100495.69;;;10.29;100.00
59608;BME280;45426;44.726;10.390;2023-02-23T05:10:26;100502.50;;;10.05;100.00
59608;BME280;45426;44.726;10.390;2023-02-23T05:12:51;100490.25;;;10.29;100.00
59608;BME280;45426;44.726;10.390;2023-02-23T05:15:16;100484.22;;;10.23;100.00
59608;BME280;45426;44.726;10.390;2023-02-23T05:17:42;100498.88;;;10.31;100.00
59608;BME280;45426;44.726;10.390;2023-02-23T05:20:09;100486.25;;;10.26;100.00
59608;BME280;45426;44.726;10.390;2023-02-23T05:22:35;100486.63;;;10.16;100.00
59608;BME280;45426;44.726;10.390;2023-02-23T05:25:05;100484.13;;;10.41;100.00
59608;BME280;45426;44.726;10.390;2023-02-23T05:27:31;100487.84;;;10.36;100.00
59608;BME280;45426;44.726;10.390;2023-02-23T05:29:57;100495.59;;;10.46;100.00
59608;BME280;45426;44.726;10.390;2023-02-23T05:32:22;100487.91;;;10.48;100.00
59608;BME280;45426;44.726;10.390;2023-02-23T05:34:48;100480.34;;;10.24;100.00
59608;BME280;45426;44.726;10.390;2023-02-23T05:37:14;100481.84;;;10.13;100.00
59608;BME280;45426;44.726;10.390;2023-02-23T05:39:39;100483.75;;;10.21;100.00
59608;BME280;45426;44.726;10.390;2023-02-23T05:42:04;100491.63;;;10.44;100.00
59608;BME280;45426;44.726;10.390;2023-02-23T05:44:30;100486.97;;;10.44;100.00
59608;BME280;45426;44.726;10.390;2023-02-23T05:46:55;100493.38;;;10.40;100.00
59608;BME280;45426;44.726;10.390;2023-02-23T05:49:21;100488.75;;;10.10;100.00
59608;BME280;45426;44.726;10.390;2023-02-23T05:51:46;100486.78;;;10.20;100.00
59608;BME280;45426;44.726;10.390;2023-02-23T05:54:12;100494.03;;;10.07;100.00
59608;BME280;45426;44.726;10.390;2023-02-23T05:56:38;100492.50;;;10.27;100.00
59608;BME280;45426;44.726;10.390;2023-02-23T05:59:04;100488.09;;;10.43;100.00
59608;BME280;45426;44.726;10.390;2023-02-23T06:01:30;100485.63;;;10.21;100.00
59608;BME280;45426;44.726;10.390;2023-02-23T06:03:56;100495.44;;;10.13;100.00
59608;BME280;45426;44.726;10.390;2023-02-23T06:06:21;100502.34;;;10.02;100.00
59608;BME280;45426;44.726;10.390;2023-02-23T06:08:48;100505.22;;;9.97;100.00
59608;BME280;45426;44.726;10.390;2023-02-23T06:11:14;100504.78;;;10.24;100.00
59608;BME280;45426;44.726;10.390;2023-02-23T06:13:39;100510.41;;;9.89;100.00
59608;BME280;45426;44.726;10.390;2023-02-23T06:16:05;100508.81;;;10.18;100.00
59608;BME280;45426;44.726;10.390;2023-02-23T06:18:32;100507.22;;;10.17;100.00
59608;BME280;45426;44.726;10.390;2023-02-23T06:20:59;100511.69;;;10.22;100.00
59608;BME280;45426;44.726;10.390;2023-02-23T06:23:26;100515.00;;;10.27;100.00
59608;BME280;45426;44.726;10.390;2023-02-23T06:25:52;100517.91;;;10.31;100.00
59608;BME280;45426;44.726;10.390;2023-02-23T06:28:17;100512.13;;;10.33;100.00
59608;BME280;45426;44.726;10.390;2023-02-23T06:30:43;100516.69;;;10.02;100.00
59608;BME280;45426;44.726;10.390;2023-02-23T06:33:11;100519.81;;;10.31;100.00
59608;BME280;45426;44.726;10.390;2023-02-23T06:35:36;100513.72;;;10.34;100.00
59608;BME280;45426;44.726;10.390;2023-02-23T06:38:03;100521.41;;;10.32;100.00
59608;BME280;45426;44.726;10.390;2023-02-23T06:40:28;100526.50;;;10.24;100.00
59608;BME280;45426;44.726;10.390;2023-02-23T06:42:55;100525.25;;;10.22;100.00
59608;BME280;45426;44.726;10.390;2023-02-23T06:45:20;100532.97;;;10.11;100.00
59608;BME280;45426;44.726;10.390;2023-02-23T06:47:46;100536.53;;;10.03;100.00
59608;BME280;45426;44.726;10.390;2023-02-23T06:50:12;100544.38;;;9.96;100.00
59608;BME280;45426;44.726;10.390;2023-02-23T06:52:38;100546.44;;;9.99;100.00
59608;BME280;45426;44.726;10.390;2023-02-23T06:55:04;100545.91;;;10.14;100.00
59608;BME280;45426;44.726;10.390;2023-02-23T06:57:29;100545.19;;;10.35;100.00
59608;BME280;45426;44.726;10.390;2023-02-23T06:59:55;100540.78;;;10.51;100.00
59608;BME280;45426;44.726;10.390;2023-02-23T07:02:21;100554.03;;;10.53;100.00
59608;BME280;45426;44.726;10.390;2023-02-23T07:04:46;100553.66;;;10.33;100.00
59608;BME280;45426;44.726;10.390;2023-02-23T07:07:12;100550.69;;;10.47;100.00
59608;BME280;45426;44.726;10.390;2023-02-23T07:09:39;100552.88;;;10.62;100.00
59608;BME280;45426;44.726;10.390;2023-02-23T07:12:05;100545.56;;;10.54;100.00
59608;BME280;45426;44.726;10.390;2023-02-23T07:14:31;100549.66;;;10.60;100.00
59608;BME280;45426;44.726;10.390;2023-02-23T07:17:00;100542.59;;;10.68;100.00
59608;BME280;45426;44.726;10.390;2023-02-23T07:19:26;100546.13;;;10.68;100.00
59608;BME280;45426;44.726;10.390;2023-02-23T07:21:51;100549.72;;;10.81;100.00
59608;BME280;45426;44.726;10.390;2023-02-23T07:24:17;100549.84;;;10.85;100.00
59608;BME280;45426;44.726;10.390;2023-02-23T07:26:43;100547.03;;;10.73;100.00
59608;BME280;45426;44.726;10.390;2023-02-23T07:29:10;100549.44;;;10.95;100.00
59608;BME280;45426;44.726;10.390;2023-02-23T07:31:37;100553.53;;;10.80;100.00
59608;BME280;45426;44.726;10.390;2023-02-23T07:34:02;100557.28;;;10.97;100.00
59608;BME280;45426;44.726;10.390;2023-02-23T07:36:28;100552.88;;;11.04;100.00
59608;BME280;45426;44.726;10.390;2023-02-23T07:38:53;100560.88;;;11.22;100.00
59608;BME280;45426;44.726;10.390;2023-02-23T07:41:19;100552.53;;;11.27;100.00
59608;BME280;45426;44.726;10.390;2023-02-23T07:43:44;100558.03;;;11.39;100.00
59608;BME280;45426;44.726;10.390;2023-02-23T07:46:09;100561.50;;;11.61;100.00
59608;BME280;45426;44.726;10.390;2023-02-23T07:48:35;100556.06;;;11.61;100.00
59608;BME280;45426;44.726;10.390;2023-02-23T07:51:00;100563.69;;;11.68;100.00
59608;BME280;45426;44.726;10.390;2023-02-23T07:53:26;100562.66;;;11.60;100.00
59608;BME280;45426;44.726;10.390;2023-02-23T07:55:59;100561.91;;;11.84;100.00
59608;BME280;45426;44.726;10.390;2023-02-23T07:58:26;100567.41;;;11.63;100.00
59608;BME280;45426;44.726;10.390;2023-02-23T08:00:52;100577.00;;;11.27;100.00
59608;BME280;45426;44.726;10.390;2023-02-23T08:03:18;100557.47;;;11.67;100.00
59608;BME280;45426;44.726;10.390;2023-02-23T08:05:43;100561.28;;;11.66;100.00
59608;BME280;45426;44.726;10.390;2023-02-23T08:08:10;100555.09;;;11.78;100.00
59608;BME280;45426;44.726;10.390;2023-02-23T08:10:36;100558.38;;;11.38;100.00
59608;BME280;45426;44.726;10.390;2023-02-23T08:13:02;100565.00;;;11.61;100.00
59608;BME280;45426;44.726;10.390;2023-02-23T08:15:28;100563.81;;;11.83;100.00
59608;BME280;45426;44.726;10.390;2023-02-23T08:17:54;100561.09;;;11.71;100.00
59608;BME280;45426;44.726;10.390;2023-02-23T08:20:19;100557.69;;;11.74;100.00
59608;BME280;45426;44.726;10.390;2023-02-23T08:22:45;100552.25;;;11.74;100.00
59608;BME280;45426;44.726;10.390;2023-02-23T08:25:10;100546.56;;;12.13;100.00
59608;BME280;45426;44.726;10.390;2023-02-23T08:27:36;100550.06;;;12.26;100.00
59608;BME280;45426;44.726;10.390;2023-02-23T08:30:03;100545.53;;;12.42;100.00
59608;BME280;45426;44.726;10.390;2023-02-23T08:32:32;100552.13;;;12.41;100.00
59608;BME280;45426;44.726;10.390;2023-02-23T08:34:59;100558.56;;;11.99;100.00
59608;BME280;45426;44.726;10.390;2023-02-23T08:37:27;100552.47;;;12.27;100.00
59608;BME280;45426;44.726;10.390;2023-02-23T08:39:56;100559.38;;;12.24;100.00
59608;BME280;45426;44.726;10.390;2023-02-23T08:42:22;100557.75;;;12.60;100.00
59608;BME280;45426;44.726;10.390;2023-02-23T08:44:47;100566.41;;;12.62;100.00
59608;BME280;45426;44.726;10.390;2023-02-23T08:47:14;100555.28;;;12.55;100.00
59608;BME280;45426;44.726;10.390;2023-02-23T08:49:46;100571.31;;;12.45;100.00
59608;BME280;45426;44.726;10.390;2023-02-23T08:52:12;100564.63;;;12.42;100.00
59608;BME280;45426;44.726;10.390;2023-02-23T08:54:37;100578.69;;;12.32;100.00
59608;BME280;45426;44.726;10.390;2023-02-23T08:57:02;100575.50;;;12.42;100.00
59608;BME280;45426;44.726;10.390;2023-02-23T08:59:28;100574.69;;;12.41;100.00
59608;BME280;45426;44.726;10.390;2023-02-23T09:01:53;100581.97;;;12.37;100.00
59608;BME280;45426;44.726;10.390;2023-02-23T09:04:19;100574.59;;;12.38;100.00
59608;BME280;45426;44.726;10.390;2023-02-23T09:06:45;100571.50;;;12.64;100.00
59608;BME280;45426;44.726;10.390;2023-02-23T09:09:12;100570.25;;;12.49;100.00
59608;BME280;45426;44.726;10.390;2023-02-23T09:11:37;100571.75;;;12.59;100.00
59608;BME280;45426;44.726;10.390;2023-02-23T09:14:03;100582.88;;;12.54;100.00
59608;BME280;45426;44.726;10.390;2023-02-23T09:16:28;100579.94;;;12.59;100.00
59608;BME280;45426;44.726;10.390;2023-02-23T09:18:54;100572.88;;;12.58;100.00
59608;BME280;45426;44.726;10.390;2023-02-23T09:21:20;100577.78;;;12.65;100.00
59608;BME280;45426;44.726;10.390;2023-02-23T09:23:49;100578.69;;;12.32;100.00
59608;BME280;45426;44.726;10.390;2023-02-23T09:26:17;100579.06;;;12.95;100.00
59608;BME280;45426;44.726;10.390;2023-02-23T09:28:43;100582.25;;;12.97;100.00
59608;BME280;45426;44.726;10.390;2023-02-23T09:31:12;100579.28;;;13.02;100.00
59608;BME280;45426;44.726;10.390;2023-02-23T09:33:39;100581.06;;;12.70;100.00
59608;BME280;45426;44.726;10.390;2023-02-23T09:36:09;100584.75;;;12.90;100.00
59608;BME280;45426;44.726;10.390;2023-02-23T09:38:38;100584.00;;;12.77;100.00
59608;BME280;45426;44.726;10.390;2023-02-23T09:41:36;100581.00;;;12.95;100.00
59608;BME280;45426;44.726;10.390;2023-02-23T09:49:15;100581.63;;;12.76;100.00
59608;BME280;45426;44.726;10.390;2023-02-23T09:51:47;100586.38;;;12.79;100.00
59608;BME280;45426;44.726;10.390;2023-02-23T09:54:16;100584.72;;;13.15;100.00
59608;BME280;45426;44.726;10.390;2023-02-23T09:56:46;100590.63;;;13.17;100.00
59608;BME280;45426;44.726;10.390;2023-02-23T09:59:14;100587.44;;;13.15;100.00
59608;BME280;45426;44.726;10.390;2023-02-23T10:21:02;100590.38;;;13.34;100.00
59608;BME280;45426;44.726;10.390;2023-02-23T10:23:40;100597.16;;;13.40;100.00
59608;BME280;45426;44.726;10.390;2023-02-23T10:26:13;100598.53;;;13.22;100.00
59608;BME280;45426;44.726;10.390;2023-02-23T10:28:40;100591.97;;;13.35;100.00
59608;BME280;45426;44.726;10.390;2023-02-23T10:31:26;100595.63;;;13.15;100.00
59608;BME280;45426;44.726;10.390;2023-02-23T10:33:54;100590.91;;;13.40;100.00
59608;BME280;45426;44.726;10.390;2023-02-23T10:36:34;100587.31;;;13.80;100.00
59608;BME280;45426;44.726;10.390;2023-02-23T10:39:02;100593.00;;;13.59;100.00
59608;BME280;45426;44.726;10.390;2023-02-23T10:41:29;100585.75;;;13.51;100.00
59608;BME280;45426;44.726;10.390;2023-02-23T10:43:55;100593.41;;;13.89;100.00
59608;BME280;45426;44.726;10.390;2023-02-23T10:46:23;100590.47;;;13.82;100.00
59608;BME280;45426;44.726;10.390;2023-02-23T10:48:53;100593.06;;;14.23;100.00
59608;BME280;45426;44.726;10.390;2023-02-23T10:51:26;100585.19;;;13.73;100.00
59608;BME280;45426;44.726;10.390;2023-02-23T10:53:53;100590.84;;;13.96;100.00
59608;BME280;45426;44.726;10.390;2023-02-23T10:56:20;100593.63;;;14.12;100.00
59608;BME280;45426;44.726;10.390;2023-02-23T10:58:49;100587.34;;;14.28;100.00
59608;BME280;45426;44.726;10.390;2023-02-23T11:01:39;100587.25;;;14.24;100.00
59608;BME280;45426;44.726;10.390;2023-02-23T11:04:48;100588.41;;;14.39;100.00
59608;BME280;45426;44.726;10.390;2023-02-23T11:07:17;100582.75;;;14.48;100.00
59608;BME280;45426;44.726;10.390;2023-02-23T11:09:43;100584.06;;;14.38;100.00
59608;BME280;45426;44.726;10.390;2023-02-23T11:12:26;100572.69;;;14.36;100.00
59608;BME280;45426;44.726;10.390;2023-02-23T11:14:58;100568.31;;;14.00;100.00
59608;BME280;45426;44.726;10.390;2023-02-23T11:17:36;100568.56;;;13.78;100.00
59608;BME280;45426;44.726;10.390;2023-02-23T11:20:36;100561.69;;;13.85;100.00
59608;BME280;45426;44.726;10.390;2023-02-23T11:23:39;100566.09;;;14.37;100.00
59608;BME280;45426;44.726;10.390;2023-02-23T11:26:26;100564.59;;;14.40;100.00
59608;BME280;45426;44.726;10.390;2023-02-23T11:28:56;100562.84;;;14.31;100.00
59608;BME280;45426;44.726;10.390;2023-02-23T11:31:29;100554.88;;;14.74;100.00
59608;BME280;45426;44.726;10.390;2023-02-23T11:33:57;100550.75;;;14.48;100.00
59608;BME280;45426;44.726;10.390;2023-02-23T11:39:00;100547.97;;;14.80;100.00
59608;BME280;45426;44.726;10.390;2023-02-23T11:41:26;100548.91;;;14.88;100.00
59608;BME280;45426;44.726;10.390;2023-02-23T11:43:59;100541.53;;;14.56;100.00
59608;BME280;45426;44.726;10.390;2023-02-23T11:46:28;100549.63;;;14.17;100.00
59608;BME280;45426;44.726;10.390;2023-02-23T11:48:59;100538.34;;;14.03;100.00
59608;BME280;45426;44.726;10.390;2023-02-23T11:51:34;100546.19;;;14.21;100.00
59608;BME280;45426;44.726;10.390;2023-02-23T11:54:01;100533.56;;;14.32;100.00
59608;BME280;45426;44.726;10.390;2023-02-23T11:56:29;100535.50;;;14.31;100.00
59608;BME280;45426;44.726;10.390;2023-02-23T11:59:00;100525.59;;;14.59;100.00
59608;BME280;45426;44.726;10.390;2023-02-23T12:01:44;100523.72;;;15.18;100.00
59608;BME280;45426;44.726;10.390;2023-02-23T12:04:26;100529.75;;;14.88;100.00
59608;BME280;45426;44.726;10.390;2023-02-23T12:07:27;100527.03;;;14.88;100.00
59608;BME280;45426;44.726;10.390;2023-02-23T12:12:59;100519.59;;;14.53;100.00
59608;BME280;45426;44.726;10.390;2023-02-23T12:16:28;100518.25;;;14.98;100.00
59608;BME280;45426;44.726;10.390;2023-02-23T12:23:44;100527.81;;;14.88;100.00
59608;BME280;45426;44.726;10.390;2023-02-23T12:26:19;100518.63;;;15.39;100.00
59608;BME280;45426;44.726;10.390;2023-02-23T12:33:52;100512.28;;;15.12;100.00
59608;BME280;45426;44.726;10.390;2023-02-23T12:36:34;100520.59;;;14.80;100.00
59608;BME280;45426;44.726;10.390;2023-02-23T12:41:47;100505.34;;;14.79;100.00
59608;BME280;45426;44.726;10.390;2023-02-23T12:47:28;100502.69;;;15.02;100.00
59608;BME280;45426;44.726;10.390;2023-02-23T12:56:05;100497.09;;;14.95;100.00
59608;BME280;45426;44.726;10.390;2023-02-23T13:01:36;100502.03;;;15.09;100.00
59608;BME280;45426;44.726;10.390;2023-02-23T13:20:51;100499.28;;;14.70;100.00
59608;BME280;45426;44.726;10.390;2023-02-23T13:23:35;100496.78;;;14.45;100.00
59608;BME280;45426;44.726;10.390;2023-02-23T13:31:19;100494.78;;;14.42;100.00
59608;BME280;45426;44.726;10.390;2023-02-23T13:33:45;100495.81;;;14.37;100.00
59608;BME280;45426;44.726;10.390;2023-02-23T13:36:10;100485.28;;;14.55;100.00
59608;BME280;45426;44.726;10.390;2023-02-23T13:38:42;100482.19;;;14.22;100.00
59608;BME280;45426;44.726;10.390;2023-02-23T13:44:09;100488.38;;;14.18;100.00
59608;BME280;45426;44.726;10.390;2023-02-23T13:47:35;100491.81;;;14.51;100.00
59608;BME280;45426;44.726;10.390;2023-02-23T13:49:38;100497.56;;;14.62;100.00
59608;BME280;45426;44.726;10.390;2023-02-23T13:52:36;100495.34;;;14.67;100.00
59608;BME280;45426;44.726;10.390;2023-02-23T13:58:10;100495.47;;;14.39;100.00
59608;BME280;45426;44.726;10.390;2023-02-23T14:00:39;100491.75;;;14.47;100.00
59608;BME280;45426;44.726;10.390;2023-02-23T14:03:07;100492.63;;;14.51;100.00
59608;BME280;45426;44.726;10.390;2023-02-23T14:05:44;100492.56;;;14.48;100.00
59608;BME280;45426;44.726;10.390;2023-02-23T14:08:36;100491.47;;;14.88;100.00
59608;BME280;45426;44.726;10.390;2023-02-23T14:11:03;100489.22;;;14.93;100.00
59608;BME280;45426;44.726;10.390;2023-02-23T14:13:32;100487.63;;;14.73;100.00
59608;BME280;45426;44.726;10.390;2023-02-23T14:16:18;100491.38;;;14.84;100.00
59608;BME280;45426;44.726;10.390;2023-02-23T14:21:59;100488.78;;;15.11;100.00
59608;BME280;45426;44.726;10.390;2023-02-23T14:24:27;100479.09;;;14.74;100.00
59608;BME280;45426;44.726;10.390;2023-02-23T14:29:44;100484.34;;;14.83;100.00
59608;BME280;45426;44.726;10.390;2023-02-23T14:32:29;100479.94;;;14.79;100.00
59608;BME280;45426;44.726;10.390;2023-02-23T14:35:00;100478.84;;;14.64;100.00
59608;BME280;45426;44.726;10.390;2023-02-23T14:37:35;100479.81;;;14.55;100.00
59608;BME280;45426;44.726;10.390;2023-02-23T14:40:51;100477.44;;;14.54;100.00
59608;BME280;45426;44.726;10.390;2023-02-23T14:42:56;100475.41;;;14.67;100.00
59608;BME280;45426;44.726;10.390;2023-02-23T14:45:24;100481.31;;;14.53;100.00
59608;BME280;45426;44.726;10.390;2023-02-23T14:47:54;100472.16;;;14.61;100.00
59608;BME280;45426;44.726;10.390;2023-02-23T14:50:26;100478.56;;;14.17;100.00
59608;BME280;45426;44.726;10.390;2023-02-23T14:52:54;100477.28;;;14.63;100.00
59608;BME280;45426;44.726;10.390;2023-02-23T14:55:24;100472.13;;;14.26;100.00
59608;BME280;45426;44.726;10.390;2023-02-23T14:57:50;100478.22;;;14.54;100.00
59608;BME280;45426;44.726;10.390;2023-02-23T15:00:30;100471.00;;;14.62;100.00